createdAt,value
2023-04-10T00:03:03.982Z,101183.25
2023-04-10T00:07:05.773Z,101194.22
2023-04-10T00:11:08.426Z,101207.00
2023-04-10T00:15:10.460Z,101207.00
2023-04-10T00:19:12.779Z,101215.50
2023-04-10T00:23:14.312Z,101216.34
2023-04-10T00:27:16.041Z,101220.53
2023-04-10T00:31:17.600Z,101223.91
2023-04-10T00:35:19.162Z,101220.50
2023-04-10T00:39:20.872Z,101225.31
2023-04-10T00:43:22.464Z,101223.09
2023-04-10T00:47:24.435Z,101210.78
2023-04-10T00:51:26.447Z,101210.47
2023-04-10T00:55:28.101Z,101205.78
2023-04-10T00:59:29.738Z,101194.38
2023-04-10T01:03:31.590Z,101196.59
2023-04-10T01:07:42.561Z,101199.84
2023-04-10T01:11:56.000Z,101193.59
2023-04-10T01:16:18.708Z,101191.69
2023-04-10T01:20:30.988Z,101207.78
2023-04-10T01:24:59.628Z,101214.47
2023-04-10T01:29:11.648Z,101231.22
2023-04-10T01:33:22.793Z,101226.66
2023-04-10T01:37:33.526Z,101226.97
2023-04-10T01:41:36.700Z,101214.53
2023-04-10T01:45:41.598Z,101225.47
2023-04-10T01:49:46.613Z,101217.13
2023-04-10T01:53:51.855Z,101234.44
2023-04-10T01:57:59.895Z,101223.00
2023-04-10T02:02:01.991Z,101216.38
2023-04-10T02:06:23.560Z,101211.50
2023-04-10T02:10:31.491Z,101200.53
2023-04-10T02:14:36.701Z,101202.28
2023-04-10T02:18:40.520Z,101190.38
2023-04-10T02:22:45.501Z,101185.97
2023-04-10T02:26:52.592Z,101187.56
2023-04-10T02:30:54.180Z,101192.28
2023-04-10T02:34:56.880Z,101193.84
2023-04-10T02:38:58.509Z,101181.00
2023-04-10T02:43:01.372Z,101180.84
2023-04-10T02:47:03.066Z,101193.59
2023-04-10T02:51:07.720Z,101191.91
2023-04-10T02:55:10.406Z,101187.78
2023-04-10T02:59:13.732Z,101177.72
2023-04-10T03:03:16.110Z,101177.81
2023-04-10T03:07:24.934Z,101169.03
2023-04-10T03:11:27.038Z,101174.78
2023-04-10T03:15:28.731Z,101160.19
2023-04-10T03:19:32.735Z,101166.69
2023-04-10T03:23:34.322Z,101154.38
2023-04-10T03:27:36.206Z,101144.72
2023-04-10T03:31:38.793Z,101135.03
2023-04-10T03:35:40.589Z,101140.06
2023-04-10T03:39:42.192Z,101139.16
2023-04-10T03:43:48.483Z,101133.81
2023-04-10T03:47:50.141Z,101135.41
2023-04-10T03:51:52.926Z,101132.69
2023-04-10T03:55:54.551Z,101135.13
2023-04-10T03:59:57.822Z,101135.78
2023-04-10T04:04:00.956Z,101137.53
2023-04-10T04:08:23.303Z,101146.16
2023-04-10T04:12:46.657Z,101140.25
2023-04-10T04:17:11.693Z,101131.72
2023-04-10T04:21:33.816Z,101134.91
2023-04-10T04:26:01.225Z,101133.06
2023-04-10T04:30:21.704Z,101132.97
2023-04-10T04:34:43.484Z,101137.84
2023-04-10T04:39:01.971Z,101141.00
2023-04-10T04:43:22.421Z,101145.94
2023-04-10T04:47:44.278Z,101147.78
2023-04-10T04:51:56.375Z,101151.28
2023-04-10T04:56:09.254Z,101156.56
2023-04-10T05:00:23.321Z,101173.91
2023-04-10T05:04:36.647Z,101167.38
2023-04-10T05:08:50.238Z,101166.63
2023-04-10T05:13:17.728Z,101159.06
2023-04-10T05:17:29.893Z,101155.66
2023-04-10T05:21:41.321Z,101147.28
2023-04-10T05:26:01.789Z,101148.72
2023-04-10T05:30:41.522Z,101150.44
2023-04-10T05:35:03.157Z,101156.09
2023-04-10T05:39:28.759Z,101158.88
2023-04-10T05:43:36.508Z,101162.22
2023-04-10T05:47:44.585Z,101162.78
2023-04-10T05:52:02.316Z,101169.19
2023-04-10T05:56:22.386Z,101161.06
2023-04-10T06:00:44.198Z,101161.41
2023-04-10T06:05:17.892Z,101161.56
2023-04-10T06:09:20.429Z,101156.69
2023-04-10T06:13:22.012Z,101159.16
2023-04-10T06:17:28.497Z,101150.69
2023-04-10T06:21:30.297Z,101154.84
2023-04-10T06:25:31.883Z,101151.44
2023-04-10T06:29:34.846Z,101148.94
2023-04-10T06:33:36.772Z,101144.94
2023-04-10T06:37:40.683Z,101144.31
2023-04-10T06:41:42.287Z,101147.91
2023-04-10T06:45:58.884Z,101145.94
2023-04-10T06:50:00.664Z,101137.28
2023-04-10T06:54:02.229Z,101148.47
2023-04-10T06:58:03.849Z,101140.16
2023-04-10T07:02:05.527Z,101137.44
2023-04-10T07:06:08.336Z,101129.47
2023-04-10T07:10:10.894Z,101135.13
2023-04-10T07:14:12.424Z,101145.97
2023-04-10T07:18:13.979Z,101151.34
2023-04-10T07:22:15.817Z,101145.72
2023-04-10T07:26:17.493Z,101138.34
2023-04-10T07:30:19.129Z,101132.75
2023-04-10T07:34:20.679Z,101125.03
2023-04-10T07:38:24.110Z,101120.56
2023-04-10T07:42:25.716Z,101120.13
2023-04-10T07:46:27.548Z,101117.84
2023-04-10T07:50:30.542Z,101110.53
2023-04-10T07:54:33.976Z,101107.66
2023-04-10T07:58:35.983Z,101107.22
2023-04-10T08:02:37.644Z,101104.31
2023-04-10T08:06:39.367Z,101108.50
2023-04-10T08:10:40.907Z,101109.06
2023-04-10T08:14:43.575Z,101096.66
2023-04-10T08:18:45.774Z,101093.84
2023-04-10T08:22:47.290Z,101095.31
2023-04-10T08:26:48.826Z,101086.63
2023-04-10T08:30:50.381Z,101083.94
2023-04-10T08:34:52.067Z,101075.13
2023-04-10T08:38:53.652Z,101076.63
2023-04-10T08:42:55.549Z,101060.91
2023-04-10T08:47:00.475Z,101059.63
2023-04-10T08:51:04.968Z,101064.38
2023-04-10T08:55:09.184Z,101050.31
2023-04-10T08:59:11.002Z,101053.66
2023-04-10T09:03:15.068Z,101052.75
2023-04-10T09:07:17.184Z,101053.47
2023-04-10T09:11:18.774Z,101052.34
2023-04-10T09:15:20.353Z,101075.00
2023-04-10T09:19:32.665Z,101018.19
2023-04-10T09:23:34.190Z,101014.25
2023-04-10T09:27:38.472Z,100998.56
2023-04-10T09:31:40.291Z,100999.09
2023-04-10T09:35:42.244Z,100998.78
2023-04-10T09:39:44.248Z,100995.00
2023-04-10T09:43:46.248Z,100978.75
2023-04-10T09:48:08.164Z,100975.25
2023-04-10T09:52:31.342Z,100964.38
2023-04-10T09:56:38.097Z,100947.56
2023-04-10T10:00:47.432Z,100943.50
2023-04-10T10:04:49.865Z,100934.16
2023-04-10T10:08:52.005Z,100933.25
2023-04-10T10:12:59.503Z,100928.88
2023-04-10T10:17:07.920Z,100925.41
2023-04-10T10:21:10.218Z,100928.94
2023-04-10T10:25:13.030Z,100920.41
2023-04-10T10:29:17.364Z,100912.81
2023-04-10T10:33:19.038Z,100906.34
2023-04-10T10:37:21.650Z,100895.22
2023-04-10T10:41:40.761Z,100907.41
2023-04-10T10:46:03.806Z,100894.81
2023-04-10T10:50:05.928Z,100895.25
2023-04-10T10:54:27.398Z,100875.94
2023-04-10T10:58:52.596Z,100875.63
2023-04-10T11:03:14.816Z,100872.50
2023-04-10T11:07:17.275Z,100869.38
2023-04-10T11:11:28.027Z,100867.88
2023-04-10T11:15:30.310Z,100853.31
2023-04-10T11:20:01.061Z,100844.09
2023-04-10T11:24:04.011Z,100834.88
2023-04-10T11:28:05.594Z,100823.19
2023-04-10T11:32:08.095Z,100801.19
2023-04-10T11:36:10.055Z,100803.25
2023-04-10T11:40:12.332Z,100812.19
2023-04-10T11:44:39.517Z,100806.34
2023-04-10T11:48:41.634Z,100786.75
2023-04-10T11:52:43.338Z,100781.00
2023-04-10T11:56:54.746Z,100769.19
2023-04-10T12:01:04.253Z,100772.97
2023-04-10T12:05:06.347Z,100758.38
2023-04-10T12:09:15.948Z,100751.47
2023-04-10T12:13:30.095Z,100744.56
2023-04-10T12:17:32.153Z,100733.28
2023-04-10T12:21:36.856Z,100722.97
2023-04-10T12:25:39.405Z,100723.94
2023-04-10T12:29:41.081Z,100714.47
2023-04-10T12:33:48.653Z,100711.03
2023-04-10T12:37:52.322Z,100698.91
2023-04-10T12:41:53.989Z,100699.78
2023-04-10T12:45:56.405Z,100687.66
2023-04-10T12:50:07.903Z,100692.84
2023-04-10T12:54:09.587Z,100683.31
2023-04-10T12:58:20.155Z,100677.28
2023-04-10T13:02:22.011Z,100673.00
2023-04-10T13:06:23.725Z,100660.00
2023-04-10T13:10:25.261Z,100652.19
2023-04-10T13:14:27.141Z,100646.94
2023-04-10T13:18:28.801Z,100640.88
2023-04-10T13:22:30.499Z,100625.22
2023-04-10T13:26:32.083Z,100623.47
2023-04-10T13:30:33.953Z,100618.25
2023-04-10T13:34:36.103Z,100612.16
2023-04-10T13:38:37.650Z,100613.91
2023-04-10T13:42:41.992Z,100594.81
2023-04-10T13:46:44.364Z,100587.00
2023-04-10T13:50:45.965Z,100578.31
2023-04-10T13:54:47.628Z,100577.38
2023-04-10T13:58:49.253Z,100576.53
2023-04-10T14:02:50.956Z,100567.84
2023-04-10T14:06:57.614Z,100566.09
2023-04-10T14:10:59.322Z,100570.50
2023-04-10T14:15:01.010Z,100565.34
2023-04-10T14:19:02.575Z,100557.50
2023-04-10T14:23:04.184Z,100554.88
2023-04-10T14:27:05.828Z,100551.44
2023-04-10T14:31:08.053Z,100546.22
2023-04-10T14:35:10.378Z,100547.09
2023-04-10T14:39:11.923Z,100540.19
2023-04-10T14:43:13.573Z,100535.81
2023-04-10T14:47:15.196Z,100522.75
2023-04-10T14:51:16.911Z,100524.50
2023-04-10T14:55:18.564Z,100515.81
2023-04-10T14:59:20.423Z,100501.97
2023-04-10T15:03:24.974Z,100489.00
2023-04-10T15:07:28.336Z,100495.97
2023-04-10T15:11:30.032Z,100485.59
2023-04-10T15:15:31.592Z,100476.97
2023-04-10T15:19:33.148Z,100470.09
2023-04-10T15:23:34.684Z,100458.84
2023-04-10T15:27:36.277Z,100451.06
2023-04-10T15:31:37.953Z,100453.66
2023-04-10T15:35:39.543Z,100450.22
2023-04-10T15:39:41.252Z,100447.63
2023-04-10T15:43:42.798Z,100451.94
2023-04-10T15:47:47.068Z,100445.88
2023-04-10T15:51:48.815Z,100448.47
2023-04-10T15:55:50.434Z,100437.19
2023-04-10T15:59:53.736Z,100424.22
2023-04-10T16:03:55.674Z,100406.88
2023-04-10T16:07:57.574Z,100399.09
2023-04-10T16:11:59.120Z,100386.97
2023-04-10T16:16:01.266Z,100374.03
2023-04-10T16:20:07.004Z,100373.16
2023-04-10T16:24:08.590Z,100383.56
2023-04-10T16:28:10.460Z,100387.88
2023-04-10T16:32:11.978Z,100407.81
2023-04-10T16:36:13.575Z,100380.97
2023-04-10T16:40:15.283Z,100396.53
2023-04-10T16:44:17.435Z,100395.63
2023-04-10T16:48:18.900Z,100392.97
2023-04-10T16:52:20.551Z,100390.34
2023-04-10T16:56:22.635Z,100381.66
2023-04-10T17:00:24.383Z,100377.34
2023-04-10T17:04:26.315Z,100380.78
2023-04-10T17:08:27.917Z,100371.25
2023-04-10T17:12:29.554Z,100363.38
2023-04-10T17:16:31.235Z,100364.25
2023-04-10T17:20:36.817Z,100357.28
2023-04-10T17:24:38.491Z,100351.22
2023-04-10T17:28:40.925Z,100338.25
2023-04-10T17:32:43.291Z,100339.94
2023-04-10T17:36:44.953Z,100324.38
2023-04-10T17:40:46.561Z,100309.66
2023-04-10T17:44:48.155Z,100300.13
2023-04-10T17:48:49.739Z,100286.25
2023-04-10T17:52:51.367Z,100309.50
2023-04-10T17:56:52.957Z,100304.25
2023-04-10T18:00:54.515Z,100303.34
2023-04-10T18:04:56.308Z,100325.78
2023-04-10T18:08:58.186Z,100317.97
2023-04-10T18:12:59.803Z,100319.66
2023-04-10T18:17:01.541Z,100339.44
2023-04-10T18:21:07.107Z,100338.56
2023-04-10T18:25:08.912Z,100353.19
2023-04-10T18:29:10.584Z,100337.63
2023-04-10T18:33:12.424Z,100319.53
2023-04-10T18:37:14.096Z,100310.00
2023-04-10T18:41:15.900Z,100316.00
2023-04-10T18:45:17.654Z,100326.31
2023-04-10T18:49:19.142Z,100325.44
2023-04-10T18:53:21.590Z,100322.84
2023-04-10T18:57:23.218Z,100333.16
2023-04-10T19:01:24.981Z,100332.28
2023-04-10T19:05:26.609Z,100351.16
2023-04-10T19:09:28.282Z,100352.88
2023-04-10T19:13:29.815Z,100353.66
2023-04-10T19:17:31.403Z,100363.16
2023-04-10T19:21:34.368Z,100363.13
2023-04-10T19:25:36.051Z,100354.47
2023-04-10T19:29:37.783Z,100350.16
2023-04-10T19:33:39.338Z,100332.03
2023-04-10T19:37:40.869Z,100333.78
2023-04-10T19:41:42.603Z,100333.75
2023-04-10T19:45:44.201Z,100338.84
2023-04-10T19:49:45.729Z,100343.13
2023-04-10T19:53:47.502Z,100331.06
2023-04-10T19:57:49.876Z,100325.88
2023-04-10T20:01:51.643Z,100312.91
2023-04-10T20:05:56.050Z,100304.25
2023-04-10T20:10:02.340Z,100309.38
2023-04-10T20:14:04.011Z,100290.41
2023-04-10T20:18:05.725Z,100289.53
2023-04-10T20:22:07.888Z,100290.34
2023-04-10T20:26:11.664Z,100273.09
2023-04-10T20:30:13.602Z,100270.47
2023-04-10T20:34:15.287Z,100260.13
2023-04-10T20:38:18.238Z,100251.47
2023-04-10T20:42:19.853Z,100256.63
2023-04-10T20:46:21.569Z,100245.44
2023-04-10T20:50:23.213Z,100220.47
2023-04-10T20:54:25.776Z,100227.31
2023-04-10T20:58:27.457Z,100229.00
2023-04-10T21:02:29.337Z,100221.25
2023-04-10T21:06:34.524Z,100237.56
2023-04-10T21:10:40.006Z,100255.63
2023-04-10T21:14:41.690Z,100252.22
2023-04-10T21:18:43.405Z,100253.00
2023-04-10T21:22:44.979Z,100263.34
2023-04-10T21:26:47.639Z,100259.91
2023-04-10T21:30:49.661Z,100244.31
2023-04-10T21:34:51.237Z,100229.63
2023-04-10T21:38:52.919Z,100228.72
2023-04-10T21:42:56.635Z,100222.72
2023-04-10T21:46:58.357Z,100205.47
2023-04-10T21:51:01.834Z,100196.91
2023-04-10T21:55:05.115Z,100146.97
2023-04-10T21:59:07.862Z,100159.78
2023-04-10T22:03:09.630Z,100145.91
2023-04-10T22:07:12.116Z,100143.28
2023-04-10T22:11:13.710Z,100138.09
2023-04-10T22:15:15.435Z,100129.41
2023-04-10T22:19:17.025Z,100135.47
2023-04-10T22:23:18.634Z,100121.72
2023-04-10T22:27:20.259Z,100098.50
2023-04-10T22:31:21.883Z,100114.84
2023-04-10T22:35:24.010Z,100113.94
2023-04-10T22:39:25.750Z,100145.78
2023-04-10T22:43:27.268Z,100162.88
2023-04-10T22:47:28.811Z,100154.16
2023-04-10T22:51:31.231Z,100152.16
2023-04-10T22:55:32.764Z,100178.66
2023-04-10T22:59:37.905Z,100180.06
2023-04-10T23:03:39.513Z,100179.56
2023-04-10T23:07:41.114Z,100190.72
2023-04-10T23:11:42.750Z,100194.81
2023-04-10T23:15:51.886Z,100202.03
2023-04-10T23:19:54.139Z,100189.75
2023-04-10T23:23:55.696Z,100188.09
2023-04-10T23:27:59.324Z,100182.13
2023-04-10T23:32:00.872Z,100171.09
2023-04-10T23:36:02.552Z,100160.81
2023-04-10T23:40:04.573Z,100165.75
2023-04-10T23:44:06.250Z,100157.09
2023-04-10T23:48:08.959Z,100154.47
2023-04-10T23:52:10.612Z,100139.06
2023-04-10T23:56:12.158Z,100141.41
